CheckWX is a tool to help pilots better visualize weather data.  It is not intended as a substitute for an official pre-flight weather briefing.

12:04:02 UTC

CYQY METAR
Sydney / J.A. Douglas McCurdy Airport
Sydney, Canada
Current

1 hour ago

CYQY 261100Z 32008KT 15SM FEW009 FEW035 SCT075 SCT240 02/00 A2994 RMK CU1SC1AC1CI1 CI TR ACSL ASOCTD SLP143
Observed
Apr-26 @ 11:00 UTC
Wind
  • 320° at 8 KTS
Visibility
15 SM
Flight Rules
VFR
Cloud Levels
  • Few at 900' AGL
  • Few at 3,500' AGL
  • Scattered at 7,500' AGL
  • Scattered at 24,000' AGL
Temperature
C / 36°F
Dewpoint
C / 32°F
Humidity
87%
Altimeter
29.94" Hg
Pressure
1013.92 hPa
Previous

2 hours ago

CYQY 261000Z 30007KT 15SM FEW035 FEW070 01/M00 A2992 RMK SC1AC1 SLP136
Observed
Apr-26 @ 10:00 UTC
Wind
  • 300° at 7 KTS
Visibility
15 SM
Flight Rules
VFR
Cloud Levels
  • Few at 3,500' AGL
  • Few at 7,000' AGL
Temperature
C / 34°F
Dewpoint
C / 32°F
Humidity
93%
Altimeter
29.92" Hg
Pressure
1013.22 hPa
Previous

3 hours ago

CYQY 260900Z 31008KT 15SM SCT035 00/M01 A2989 RMK SC3 SLP127
Observed
Apr-26 @ 09:00 UTC
Wind
  • 310° at 8 KTS
Visibility
15 SM
Flight Rules
VFR
Cloud Levels
  • Scattered at 3,500' AGL
Temperature
C / 32°F
Dewpoint
-1°C / 30°F
Humidity
93%
Altimeter
29.89" Hg
Pressure
1012.22 hPa